Time;durP1;ratioP1;P1;durP2;ratioP2;P2;SDS_P1;SDS_P2;PMS_P1;PMS_P2;Temp;Humidity;BMP_temperature;BMP_pressure;BME280_temperature;BME280_humidity;BME280_pressure;Samples;Min_cycle;Max_cycle;Signal;HPM_P1;HPM_P2
2022/10/26 00:01:08;;;;;;;36.80;24.13;;;;;;;;;;5037160;28;20028;-64
2022/10/26 00:03:35;;;;;;;36.05;22.38;;;;;;;;;;5036696;28;20115;-63
2022/10/26 00:06:06;;;;;;;34.40;19.92;;;;;;;;;;5053469;28;20025;-64
2022/10/26 00:08:32;;;;;;;31.30;19.95;;;;;;;;;;5036794;28;20404;-65
2022/10/26 00:10:58;;;;;;;28.95;17.13;;;;;;;;;;5036645;28;20028;-65
2022/10/26 00:13:24;;;;;;;30.80;19.92;;;;;;;;;;5054249;28;20033;-65
2022/10/26 00:15:50;;;;;;;28.42;20.02;;;;;;;;;;5053841;28;20040;-66
2022/10/26 00:18:16;;;;;;;25.08;15.85;;;;;;;;;;5053525;28;20025;-65
2022/10/26 00:20:42;;;;;;;52.53;18.75;;;;;;;;;;5054037;28;20021;-65
2022/10/26 00:23:08;;;;;;;30.15;18.45;;;;;;;;;;5053330;28;20424;-63
2022/10/26 00:25:34;;;;;;;24.90;17.05;;;;;;;;;;5054098;28;20028;-65
2022/10/26 00:28:00;;;;;;;27.92;17.27;;;;;;;;;;5053901;28;20082;-65
2022/10/26 00:30:26;;;;;;;29.33;15.63;;;;;;;;;;5035923;28;20036;-64
2022/10/26 00:32:52;;;;;;;35.53;22.02;;;;;;;;;;5036084;28;20065;-66
2022/10/26 00:35:18;;;;;;;39.53;25.40;;;;;;;;;;5053238;28;20021;-65
2022/10/26 00:37:44;;;;;;;29.85;17.65;;;;;;;;;;5035699;28;20162;-65
2022/10/26 00:40:10;;;;;;;32.88;23.10;;;;;;;;;;5053608;28;20021;-64
2022/10/26 00:42:36;;;;;;;29.35;19.08;;;;;;;;;;5053658;28;20528;-64
2022/10/26 00:45:21;;;;;;;26.13;17.73;;;;;;;;;;5053231;28;20072;-65
2022/10/26 00:47:48;;;;;;;28.80;19.30;;;;;;;;;;5053020;28;20396;-64
2022/10/26 00:50:17;;;;;;;35.55;23.52;;;;;;;;;;5052939;28;20040;-65
2022/10/26 00:52:43;;;;;;;27.08;17.77;;;;;;;;;;5034872;28;20033;-63
2022/10/26 00:55:09;;;;;;;26.90;16.70;;;;;;;;;;5052542;28;20056;-65
2022/10/26 00:57:36;;;;;;;23.30;15.93;;;;;;;;;;5052703;28;20082;-65
2022/10/26 01:00:04;;;;;;;26.38;16.13;;;;;;;;;;5052867;28;20017;-65
2022/10/26 01:02:30;;;;;;;27.20;18.55;;;;;;;;;;5035068;28;20021;-63
2022/10/26 01:04:56;;;;;;;27.08;16.98;;;;;;;;;;5034506;28;20476;-66
2022/10/26 01:07:32;;;;;;;23.10;15.05;;;;;;;;;;5059202;28;20029;-62
2022/10/26 01:09:59;;;;;;;23.38;15.55;;;;;;;;;;5056829;28;20027;-63
2022/10/26 01:12:25;;;;;;;27.05;15.48;;;;;;;;;;5052397;28;20040;-63
2022/10/26 01:14:51;;;;;;;31.95;17.77;;;;;;;;;;5052029;28;20473;-64
2022/10/26 01:17:36;;;;;;;27.90;16.88;;;;;;;;;;5034779;28;20489;-63
2022/10/26 01:20:20;;;;;;;30.83;17.30;;;;;;;;;;5052551;28;20048;-64
2022/10/26 01:23:05;;;;;;;24.92;16.52;;;;;;;;;;5052212;28;20028;-65
2022/10/26 01:25:31;;;;;;;22.98;14.57;;;;;;;;;;5034644;28;20385;-63
2022/10/26 01:27:57;;;;;;;23.63;14.38;;;;;;;;;;5052265;28;20024;-64
2022/10/26 01:30:26;;;;;;;22.73;14.13;;;;;;;;;;5052368;28;20119;-64
2022/10/26 01:33:04;;;;;;;28.35;14.35;;;;;;;;;;5052271;28;20024;-64
2022/10/26 01:35:40;;;;;;;23.38;14.80;;;;;;;;;;5052558;28;20048;-63
2022/10/26 01:38:35;;;;;;;27.02;15.90;;;;;;;;;;5052314;28;20029;-63
2022/10/26 01:41:01;;;;;;;22.77;13.63;;;;;;;;;;4981436;28;20031;-64
2022/10/26 01:43:30;;;;;;;24.50;13.77;;;;;;;;;;5034156;28;20028;-62
2022/10/26 01:45:57;;;;;;;20.67;13.20;;;;;;;;;;5052492;28;20029;-62
2022/10/26 01:48:25;;;;;;;24.23;15.00;;;;;;;;;;5052315;28;20052;-62
2022/10/26 01:50:53;;;;;;;22.73;14.00;;;;;;;;;;5052520;28;20043;-62
2022/10/26 01:53:19;;;;;;;23.25;13.27;;;;;;;;;;5034103;28;20064;-63
2022/10/26 01:55:45;;;;;;;24.58;13.38;;;;;;;;;;5051775;28;20059;-63
2022/10/26 01:58:31;;;;;;;24.05;14.13;;;;;;;;;;5052002;28;20377;-63
2022/10/26 02:01:20;;;;;;;22.38;13.48;;;;;;;;;;5052167;28;20452;-63
2022/10/26 02:03:50;;;;;;;24.02;13.55;;;;;;;;;;5024147;28;20025;-64
2022/10/26 02:06:16;;;;;;;22.98;12.82;;;;;;;;;;5051626;28;20538;-63
2022/10/26 02:08:57;;;;;;;20.83;13.32;;;;;;;;;;5052082;28;20029;-63
2022/10/26 02:11:29;;;;;;;26.42;13.40;;;;;;;;;;5034281;28;20053;-64
2022/10/26 02:14:11;;;;;;;24.63;13.05;;;;;;;;;;5051442;28;20029;-64
2022/10/26 02:16:40;;;;;;;21.30;12.68;;;;;;;;;;5034098;28;20091;-64
2022/10/26 02:19:20;;;;;;;20.63;12.05;;;;;;;;;;5051919;28;20027;-63
2022/10/26 02:21:50;;;;;;;22.40;12.77;;;;;;;;;;5051854;28;20025;-64
2022/10/26 02:24:16;;;;;;;25.50;13.32;;;;;;;;;;5033665;28;20385;-63
2022/10/26 02:26:45;;;;;;;24.08;13.25;;;;;;;;;;5051990;28;20029;-63
2022/10/26 02:29:14;;;;;;;24.85;13.57;;;;;;;;;;5053442;28;20449;-64
2022/10/26 02:31:41;;;;;;;23.05;13.85;;;;;;;;;;5037685;28;20119;-64
2022/10/26 02:34:09;;;;;;;22.35;13.68;;;;;;;;;;5037183;28;20032;-64
2022/10/26 02:36:36;;;;;;;26.35;14.98;;;;;;;;;;5037432;28;20495;-64
2022/10/26 02:39:04;;;;;;;26.95;16.92;;;;;;;;;;5055755;28;20024;-64
2022/10/26 02:41:30;;;;;;;24.52;13.35;;;;;;;;;;5037939;28;20017;-64
2022/10/26 02:44:02;;;;;;;21.33;12.88;;;;;;;;;;5055184;28;20068;-64
2022/10/26 02:46:28;;;;;;;23.83;13.50;;;;;;;;;;5055463;28;20033;-64
2022/10/26 02:48:55;;;;;;;20.55;13.05;;;;;;;;;;5064303;28;20021;-63
2022/10/26 02:51:44;;;;;;;24.63;13.20;;;;;;;;;;5040150;28;20033;-64
2022/10/26 02:54:15;;;;;;;21.20;12.40;;;;;;;;;;5054782;28;20025;-64
2022/10/26 02:56:44;;;;;;;20.80;12.38;;;;;;;;;;5037453;28;20127;-64
2022/10/26 02:59:11;;;;;;;21.50;11.70;;;;;;;;;;5055020;28;20017;-64
2022/10/26 03:01:37;;;;;;;20.33;11.20;;;;;;;;;;5054770;28;20025;-64
2022/10/26 03:04:03;;;;;;;20.70;11.95;;;;;;;;;;5054789;28;20049;-64
2022/10/26 03:06:29;;;;;;;20.85;11.77;;;;;;;;;;5055095;28;20074;-63
2022/10/26 03:08:55;;;;;;;21.42;11.70;;;;;;;;;;5036557;28;20498;-63
2022/10/26 03:11:21;;;;;;;19.00;11.70;;;;;;;;;;5054631;28;20021;-64
2022/10/26 03:13:47;;;;;;;20.33;11.63;;;;;;;;;;5036527;28;20102;-64
2022/10/26 03:16:13;;;;;;;22.95;12.13;;;;;;;;;;5054661;28;20079;-64
2022/10/26 03:18:39;;;;;;;22.85;11.75;;;;;;;;;;5054665;28;20024;-63
2022/10/26 03:21:05;;;;;;;19.02;11.48;;;;;;;;;;5054934;28;20235;-62
2022/10/26 03:23:31;;;;;;;19.80;11.77;;;;;;;;;;5054652;28;20047;-63
2022/10/26 03:25:58;;;;;;;21.00;11.40;;;;;;;;;;5054955;28;20521;-63
2022/10/26 03:28:24;;;;;;;19.45;11.60;;;;;;;;;;5036923;28;20029;-65
2022/10/26 03:30:50;;;;;;;19.98;11.77;;;;;;;;;;5036716;28;20147;-64
2022/10/26 03:33:16;;;;;;;19.95;11.98;;;;;;;;;;5036752;28;20116;-64
2022/10/26 03:35:42;;;;;;;20.70;12.43;;;;;;;;;;5054983;28;20424;-65
2022/10/26 03:38:08;;;;;;;19.10;11.43;;;;;;;;;;5037265;28;20021;-63
2022/10/26 03:40:34;;;;;;;19.58;11.95;;;;;;;;;;5054658;28;20446;-64
2022/10/26 03:43:01;;;;;;;21.50;11.32;;;;;;;;;;5054321;28;20032;-65
2022/10/26 03:45:27;;;;;;;19.48;11.90;;;;;;;;;;5054291;28;20040;-64
2022/10/26 03:47:53;;;;;;;21.15;11.80;;;;;;;;;;5054859;28;20029;-65
2022/10/26 03:50:20;;;;;;;22.55;11.35;;;;;;;;;;5054291;28;20021;-65
2022/10/26 03:52:46;;;;;;;18.23;11.00;;;;;;;;;;5054240;28;20025;-64
2022/10/26 03:55:12;;;;;;;18.77;11.52;;;;;;;;;;5035612;28;20033;-65
2022/10/26 03:57:42;;;;;;;17.55;10.93;;;;;;;;;;5054410;28;20025;-65
2022/10/26 04:00:08;;;;;;;20.77;11.23;;;;;;;;;;5036034;28;20024;-65
2022/10/26 04:02:34;;;;;;;20.23;10.88;;;;;;;;;;5054099;28;20025;-65
2022/10/26 04:05:00;;;;;;;21.38;11.95;;;;;;;;;;5035769;28;20025;-64
2022/10/26 04:07:26;;;;;;;21.88;11.32;;;;;;;;;;5052647;28;20488;-63
2022/10/26 04:09:52;;;;;;;17.83;10.70;;;;;;;;;;5052722;28;20107;-65
2022/10/26 04:12:18;;;;;;;22.67;11.50;;;;;;;;;;5053847;28;20051;-63
2022/10/26 04:14:44;;;;;;;25.60;11.60;;;;;;;;;;5054155;28;20032;-63
2022/10/26 04:17:10;;;;;;;21.67;11.20;;;;;;;;;;5053982;28;20090;-63
2022/10/26 04:19:36;;;;;;;21.27;10.95;;;;;;;;;;5069464;28;20113;-63
2022/10/26 04:22:02;;;;;;;18.67;11.15;;;;;;;;;;5069613;28;20501;-64
2022/10/26 04:24:28;;;;;;;18.48;10.73;;;;;;;;;;5068726;28;20119;-62
2022/10/26 04:26:54;;;;;;;18.60;11.38;;;;;;;;;;5053562;28;20020;-64
2022/10/26 04:29:20;;;;;;;23.13;11.82;;;;;;;;;;5053122;28;20032;-64
2022/10/26 04:31:46;;;;;;;22.75;11.20;;;;;;;;;;5053103;28;20033;-65
2022/10/26 04:34:12;;;;;;;21.75;10.68;;;;;;;;;;5053006;28;20029;-64
2022/10/26 04:36:38;;;;;;;24.67;11.70;;;;;;;;;;5053227;28;20021;-64
2022/10/26 04:39:04;;;;;;;23.85;12.02;;;;;;;;;;5052985;28;20108;-64
2022/10/26 04:41:30;;;;;;;19.88;12.40;;;;;;;;;;5053170;28;20497;-63
2022/10/26 04:43:57;;;;;;;20.40;12.57;;;;;;;;;;5052643;28;20033;-62
2022/10/26 04:46:23;;;;;;;19.27;10.93;;;;;;;;;;5053335;28;20040;-63
2022/10/26 04:48:49;;;;;;;21.33;11.73;;;;;;;;;;5052959;28;20030;-63
2022/10/26 04:51:15;;;;;;;22.40;10.73;;;;;;;;;;5068182;28;20397;-63
2022/10/26 04:53:41;;;;;;;27.45;12.10;;;;;;;;;;5052966;28;20473;-64
2022/10/26 04:56:08;;;;;;;23.25;11.85;;;;;;;;;;5067334;22;20127;-63
2022/10/26 04:58:34;;;;;;;25.77;11.93;;;;;;;;;;5052269;28;20033;-64
2022/10/26 05:01:01;;;;;;;20.83;11.80;;;;;;;;;;5052692;28;20025;-64
2022/10/26 05:03:27;;;;;;;38.05;12.68;;;;;;;;;;5052450;28;20219;-64
2022/10/26 05:05:53;;;;;;;25.98;12.52;;;;;;;;;;5034286;28;20060;-64
2022/10/26 05:08:19;;;;;;;22.83;11.90;;;;;;;;;;5034370;28;20032;-63
2022/10/26 05:10:49;;;;;;;27.15;12.35;;;;;;;;;;5070271;28;20016;-64
2022/10/26 05:13:15;;;;;;;25.35;11.48;;;;;;;;;;5071344;28;20392;-64
2022/10/26 05:15:41;;;;;;;25.10;11.82;;;;;;;;;;5071922;28;20020;-64
2022/10/26 05:18:07;;;;;;;30.70;12.75;;;;;;;;;;5071788;28;20024;-63
2022/10/26 05:20:34;;;;;;;28.67;12.13;;;;;;;;;;5071684;28;20020;-63
2022/10/26 05:23:05;;;;;;;27.85;12.48;;;;;;;;;;5053809;28;20044;-59
2022/10/26 05:25:33;;;;;;;25.35;12.27;;;;;;;;;;5071622;28;20442;-65
2022/10/26 05:28:03;;;;;;;25.27;12.35;;;;;;;;;;5071850;28;20059;-62
2022/10/26 05:30:29;;;;;;;22.70;11.35;;;;;;;;;;5071863;28;20039;-63
2022/10/26 05:32:56;;;;;;;25.25;11.82;;;;;;;;;;5071085;28;20096;-63
2022/10/26 05:35:22;;;;;;;23.15;12.15;;;;;;;;;;5053495;28;20070;-63
2022/10/26 05:37:48;;;;;;;19.90;11.32;;;;;;;;;;5071763;28;20052;-65
2022/10/26 05:40:15;;;;;;;27.33;11.85;;;;;;;;;;5071817;28;20044;-63
2022/10/26 05:42:42;;;;;;;21.73;10.18;;;;;;;;;;5053421;28;20089;-64
2022/10/26 05:45:08;;;;;;;20.15;12.20;;;;;;;;;;5033502;28;20627;-64
2022/10/26 05:47:38;;;;;;;24.15;11.82;;;;;;;;;;5033385;28;20507;-64
2022/10/26 05:50:04;;;;;;;22.42;12.13;;;;;;;;;;5051249;28;20033;-63
2022/10/26 05:52:30;;;;;;;24.58;11.48;;;;;;;;;;5051089;28;20021;-64
2022/10/26 05:54:56;;;;;;;25.30;11.80;;;;;;;;;;5051118;28;20423;-64
2022/10/26 05:57:22;;;;;;;22.67;11.35;;;;;;;;;;5051162;28;20029;-63
2022/10/26 05:59:48;;;;;;;22.38;11.52;;;;;;;;;;5051400;28;20440;-62
2022/10/26 06:02:24;;;;;;;23.70;11.90;;;;;;;;;;5051210;28;20033;-61
2022/10/26 06:04:50;;;;;;;22.67;11.00;;;;;;;;;;5054297;28;20017;-64
2022/10/26 06:07:21;;;;;;;23.25;12.68;;;;;;;;;;5055721;28;20511;-62
2022/10/26 06:09:47;;;;;;;22.02;11.63;;;;;;;;;;5038945;28;20025;-64
2022/10/26 06:12:14;;;;;;;29.80;12.13;;;;;;;;;;5055097;28;20477;-64
2022/10/26 06:14:40;;;;;;;20.60;10.45;;;;;;;;;;5036974;28;20039;-63
2022/10/26 06:17:11;;;;;;;18.65;10.98;;;;;;;;;;5055051;28;20099;-63
2022/10/26 06:19:46;;;;;;;21.05;12.48;;;;;;;;;;5059171;28;20025;-63
2022/10/26 06:22:18;;;;;;;20.52;11.07;;;;;;;;;;5075320;28;20488;-63
2022/10/26 06:25:03;;;;;;;22.70;11.63;;;;;;;;;;5075347;28;20066;-63
2022/10/26 06:27:35;;;;;;;24.27;11.27;;;;;;;;;;5075527;28;20024;-63
2022/10/26 06:30:02;;;;;;;22.17;11.10;;;;;;;;;;5075201;28;20028;-64
2022/10/26 06:32:29;;;;;;;21.20;10.83;;;;;;;;;;5075257;28;20085;-63
2022/10/26 06:35:04;;;;;;;21.02;10.98;;;;;;;;;;5056936;28;20025;-63
2022/10/26 06:37:33;;;;;;;21.48;10.27;;;;;;;;;;5075655;28;20023;-67
2022/10/26 06:40:00;;;;;;;18.60;10.32;;;;;;;;;;5075382;28;20027;-64
2022/10/26 06:42:26;;;;;;;20.52;10.20;;;;;;;;;;5056866;28;20480;-64
2022/10/26 06:44:52;;;;;;;21.98;11.05;;;;;;;;;;5074585;28;20108;-64
2022/10/26 06:47:22;;;;;;;22.15;10.65;;;;;;;;;;5074856;28;20078;-63
2022/10/26 06:49:51;;;;;;;22.88;11.70;;;;;;;;;;5074319;28;20024;-63
2022/10/26 06:52:17;;;;;;;;;;;;;;;;;;5075031;28;20086;-64
2022/10/26 06:54:50;;;;;;;24.25;11.35;;;;;;;;;;5056196;28;19995;-63
2022/10/26 06:57:18;;;;;;;25.60;10.88;;;;;;;;;;5056925;28;20391;-63
2022/10/26 06:59:44;;;;;;;24.65;10.95;;;;;;;;;;5074612;28;20471;-63
2022/10/26 07:02:13;;;;;;;20.77;10.90;;;;;;;;;;5074489;28;20020;-63
2022/10/26 07:04:40;;;;;;;25.98;13.32;;;;;;;;;;5056248;28;20109;-63
2022/10/26 07:07:06;;;;;;;21.90;10.88;;;;;;;;;;5074302;28;20439;-63
2022/10/26 07:09:32;;;;;;;22.63;10.32;;;;;;;;;;5053946;28;20021;-63
2022/10/26 07:11:59;;;;;;;24.80;11.68;;;;;;;;;;5054117;28;20029;-64
2022/10/26 07:14:25;;;;;;;20.05;10.98;;;;;;;;;;5053550;28;20024;-64
2022/10/26 07:16:52;;;;;;;21.40;10.38;;;;;;;;;;5054127;28;20032;-64
2022/10/26 07:19:18;;;;;;;23.85;10.95;;;;;;;;;;5054020;28;20021;-64
2022/10/26 07:21:44;;;;;;;24.95;11.45;;;;;;;;;;5052944;28;20554;-63
2022/10/26 07:24:10;;;;;;;21.55;10.70;;;;;;;;;;5053794;28;20040;-64
2022/10/26 07:26:36;;;;;;;20.55;10.95;;;;;;;;;;5054013;28;20400;-64
2022/10/26 07:29:02;;;;;;;22.98;10.38;;;;;;;;;;5053866;28;20466;-64
2022/10/26 07:31:28;;;;;;;20.35;11.20;;;;;;;;;;5052349;28;20123;-63
2022/10/26 07:33:54;;;;;;;23.42;11.07;;;;;;;;;;5042880;28;20051;-63
2022/10/26 07:36:20;;;;;;;20.95;10.60;;;;;;;;;;5044094;28;20100;-62
2022/10/26 07:38:46;;;;;;;17.90;10.18;;;;;;;;;;5034983;28;20173;-63
2022/10/26 07:41:13;;;;;;;19.58;10.32;;;;;;;;;;5053065;28;20487;-64
2022/10/26 07:43:39;;;;;;;21.30;10.23;;;;;;;;;;5052269;28;20025;-64
2022/10/26 07:46:05;;;;;;;19.35;9.60;;;;;;;;;;5053558;28;20100;-63
2022/10/26 07:48:31;;;;;;;19.73;10.07;;;;;;;;;;5053713;28;20039;-64
2022/10/26 07:50:57;;;;;;;22.90;9.48;;;;;;;;;;5035814;28;20025;-67
2022/10/26 07:53:23;;;;;;;19.17;10.20;;;;;;;;;;5053197;28;20346;-66
2022/10/26 07:55:53;;;;;;;20.55;9.88;;;;;;;;;;5053367;28;20029;-65
2022/10/26 07:58:22;;;;;;;19.40;9.80;;;;;;;;;;5053791;28;20032;-65
2022/10/26 08:00:48;;;;;;;31.45;11.55;;;;;;;;;;5035816;28;20048;-66
2022/10/26 08:03:14;;;;;;;19.52;10.68;;;;;;;;;;5052526;28;20060;-65
2022/10/26 08:05:40;;;;;;;21.67;10.07;;;;;;;;;;5053468;28;20346;-65
2022/10/26 08:08:06;;;;;;;19.20;10.07;;;;;;;;;;5053766;28;20029;-66
2022/10/26 08:10:32;;;;;;;20.42;9.70;;;;;;;;;;5063376;28;20048;-65
2022/10/26 08:12:58;;;;;;;18.08;9.80;;;;;;;;;;5072837;28;20031;-64
2022/10/26 08:15:24;;;;;;;22.02;10.73;;;;;;;;;;5071279;28;20031;-66
2022/10/26 08:17:50;;;;;;;17.95;9.23;;;;;;;;;;5055396;28;20380;-64
2022/10/26 08:20:16;;;;;;;27.30;10.57;;;;;;;;;;5073078;28;20031;-63
2022/10/26 08:22:42;;;;;;;21.20;9.60;;;;;;;;;;5072628;28;20028;-65
2022/10/26 08:25:08;;;;;;;20.85;9.90;;;;;;;;;;5070926;28;20027;-65
2022/10/26 08:27:34;;;;;;;21.23;11.27;;;;;;;;;;5070518;28;20492;-66
2022/10/26 08:30:00;;;;;;;23.65;10.10;;;;;;;;;;5072737;28;20036;-66
2022/10/26 08:32:26;;;;;;;20.35;10.73;;;;;;;;;;5054668;28;20036;-66
2022/10/26 08:34:52;;;;;;;23.65;10.02;;;;;;;;;;5071885;28;20025;-66
2022/10/26 08:37:18;;;;;;;20.48;10.15;;;;;;;;;;5072363;28;20442;-66
2022/10/26 08:39:44;;;;;;;20.40;9.50;;;;;;;;;;5054659;28;20359;-66
2022/10/26 08:42:13;;;;;;;23.48;11.00;;;;;;;;;;5072039;28;20503;-65
2022/10/26 08:44:42;;;;;;;25.08;10.88;;;;;;;;;;5052642;28;20043;-65
2022/10/26 08:47:19;;;;;;;23.13;10.25;;;;;;;;;;5053493;28;20553;-64
2022/10/26 08:50:03;;;;;;;21.23;10.45;;;;;;;;;;5071477;28;20028;-66
2022/10/26 08:52:36;;;;;;;25.63;10.98;;;;;;;;;;5072329;28;20024;-65
2022/10/26 08:55:04;;;;;;;26.23;9.93;;;;;;;;;;5053866;28;20035;-66
2022/10/26 08:57:34;;;;;;;21.65;8.88;;;;;;;;;;5072318;28;20473;-60
2022/10/26 09:00:05;;;;;;;19.67;10.38;;;;;;;;;;5072295;28;20032;-67
2022/10/26 09:02:31;;;;;;;19.88;9.38;;;;;;;;;;5054176;28;20029;-65
2022/10/26 09:04:58;;;;;;;20.80;9.32;;;;;;;;;;5071513;28;20056;-64
2022/10/26 09:07:37;;;;;;;21.05;9.50;;;;;;;;;;5070897;28;20025;-65
2022/10/26 09:10:09;;;;;;;24.42;10.20;;;;;;;;;;5071988;28;20381;-65
2022/10/26 09:13:01;;;;;;;23.65;9.57;;;;;;;;;;5072000;28;20025;-66
2022/10/26 09:15:38;;;;;;;22.60;10.05;;;;;;;;;;5041000;28;20078;-65
2022/10/26 09:18:27;;;;;;;17.55;9.27;;;;;;;;;;5071591;28;20400;-64
2022/10/26 09:21:12;;;;;;;18.60;9.30;;;;;;;;;;5040288;28;20040;-65
2022/10/26 09:23:43;;;;;;;17.00;9.63;;;;;;;;;;5048637;28;20074;-66
2022/10/26 09:26:13;;;;;;;16.42;9.20;;;;;;;;;;5050828;28;20469;-66
2022/10/26 09:28:40;;;;;;;22.90;9.63;;;;;;;;;;5051057;28;20021;-66
2022/10/26 09:31:09;;;;;;;17.73;8.73;;;;;;;;;;5032999;28;20032;-66
2022/10/26 09:33:36;;;;;;;22.40;8.60;;;;;;;;;;5050845;28;20472;-66
2022/10/26 09:36:05;;;;;;;18.35;9.95;;;;;;;;;;5051475;28;20025;-66
2022/10/26 09:38:44;;;;;;;18.45;8.68;;;;;;;;;;5051572;28;20027;-66
2022/10/26 09:41:19;;;;;;;16.25;8.73;;;;;;;;;;5033844;28;20094;-66
2022/10/26 09:43:54;;;;;;;17.00;8.75;;;;;;;;;;5032692;28;20029;-66
2022/10/26 09:46:22;;;;;;;18.67;9.45;;;;;;;;;;5051480;28;20115;-66
2022/10/26 09:48:50;;;;;;;19.25;10.13;;;;;;;;;;5051173;28;20032;-65
2022/10/26 09:51:17;;;;;;;19.00;8.57;;;;;;;;;;5051259;28;20021;-66
2022/10/26 09:53:43;;;;;;;19.98;8.88;;;;;;;;;;5050466;28;20025;-65
2022/10/26 09:56:10;;;;;;;18.83;8.65;;;;;;;;;;5050948;28;20040;-66
2022/10/26 09:58:40;;;;;;;16.48;8.45;;;;;;;;;;5051575;28;20439;-64
2022/10/26 10:01:06;;;;;;;16.77;8.65;;;;;;;;;;5050678;28;20025;-66
2022/10/26 10:03:33;;;;;;;16.55;8.10;;;;;;;;;;5032813;28;20387;-65
2022/10/26 10:06:16;;;;;;;17.38;8.70;;;;;;;;;;5033686;28;20112;-65
2022/10/26 10:08:42;;;;;;;17.83;8.88;;;;;;;;;;5032823;28;20040;-65
2022/10/26 10:11:11;;;;;;;21.45;8.30;;;;;;;;;;5047869;28;20033;-65
2022/10/26 10:13:39;;;;;;;16.95;7.78;;;;;;;;;;5070563;28;20546;-65
2022/10/26 10:16:24;;;;;;;16.97;8.57;;;;;;;;;;5069658;28;20027;-66
2022/10/26 10:18:57;;;;;;;15.18;7.88;;;;;;;;;;5070957;28;20054;-64
2022/10/26 10:21:42;;;;;;;15.73;8.63;;;;;;;;;;5071432;28;20020;-64
2022/10/26 10:24:25;;;;;;;16.05;8.73;;;;;;;;;;5070747;28;20024;-65
2022/10/26 10:26:59;;;;;;;17.42;8.60;;;;;;;;;;5069724;28;20071;-65
2022/10/26 10:29:26;;;;;;;15.95;8.27;;;;;;;;;;5048041;28;20032;-65
2022/10/26 10:32:00;;;;;;;16.00;8.55;;;;;;;;;;5050230;28;20051;-65
2022/10/26 10:34:26;;;;;;;23.40;8.90;;;;;;;;;;5049507;28;20083;-62
2022/10/26 10:36:52;;;;;;;17.45;10.10;;;;;;;;;;5033001;28;20515;-64
2022/10/26 10:39:27;;;;;;;15.23;8.30;;;;;;;;;;5032667;28;20021;-65
2022/10/26 10:41:53;;;;;;;19.23;9.13;;;;;;;;;;5051222;28;20021;-63
2022/10/26 10:44:28;;;;;;;16.17;8.68;;;;;;;;;;5050200;28;20577;-65
2022/10/26 10:47:09;;;;;;;15.13;8.07;;;;;;;;;;5050667;28;20108;-64
2022/10/26 10:49:35;;;;;;;15.73;8.63;;;;;;;;;;5051596;28;20025;-63
2022/10/26 10:52:01;;;;;;;17.90;8.45;;;;;;;;;;5054627;28;20053;-64
2022/10/26 10:54:27;;;;;;;15.30;7.95;;;;;;;;;;5053793;28;20040;-63
2022/10/26 10:56:55;;;;;;;14.57;8.30;;;;;;;;;;5070261;22;20048;-66
2022/10/26 10:59:40;;;;;;;16.70;8.68;;;;;;;;;;5037545;28;20029;-67
2022/10/26 11:02:09;;;;;;;17.13;8.60;;;;;;;;;;5056452;28;20031;-65
2022/10/26 11:04:44;;;;;;;16.65;8.63;;;;;;;;;;5054693;28;20023;-66
2022/10/26 11:07:11;;;;;;;17.60;9.30;;;;;;;;;;5055043;28;20043;-67
2022/10/26 11:09:39;;;;;;;19.48;10.23;;;;;;;;;;5057775;28;20048;-67
2022/10/26 11:12:13;;;;;;;20.08;9.38;;;;;;;;;;5056879;28;20054;-67
2022/10/26 11:14:42;;;;;;;17.48;9.35;;;;;;;;;;5074273;28;20100;-66
2022/10/26 11:17:31;;;;;;;17.08;9.45;;;;;;;;;;5074704;28;20074;-66
2022/10/26 11:20:01;;;;;;;17.33;9.75;;;;;;;;;;5046829;28;20029;-67
2022/10/26 11:22:34;;;;;;;17.80;9.43;;;;;;;;;;5057140;28;20024;-67
2022/10/26 11:25:05;;;;;;;15.45;9.80;;;;;;;;;;5073302;28;20152;-67
2022/10/26 11:27:37;;;;;;;18.63;9.73;;;;;;;;;;5072926;28;20046;-68
2022/10/26 11:30:06;;;;;;;19.08;9.40;;;;;;;;;;5073688;28;20036;-67
2022/10/26 11:32:31;;;;;;;;;;;;;;;;;;5056230;28;20028;-67
2022/10/26 11:35:00;;;;;;;15.63;10.05;;;;;;;;;;5054307;28;20340;-67
2022/10/26 11:37:36;;;;;;;20.40;10.07;;;;;;;;;;5056044;28;20168;-67
2022/10/26 11:40:02;;;;;;;16.55;9.60;;;;;;;;;;5056405;28;20028;-67
2022/10/26 11:42:35;;;;;;;17.35;9.95;;;;;;;;;;5056523;28;20024;-68
2022/10/26 11:45:09;;;;;;;18.30;10.40;;;;;;;;;;5073837;28;20095;-68
2022/10/26 11:47:55;;;;;;;18.10;10.32;;;;;;;;;;5057299;28;20545;-66
2022/10/26 11:50:22;;;;;;;19.00;10.18;;;;;;;;;;5060293;28;20305;-67
2022/10/26 11:53:18;;;;;;;17.85;10.13;;;;;;;;;;5074246;28;20031;-67
2022/10/26 11:55:49;;;;;;;16.40;9.95;;;;;;;;;;5039551;28;20052;-69
2022/10/26 11:58:16;;;;;;;17.00;9.77;;;;;;;;;;5074421;28;20025;-68
2022/10/26 12:00:49;;;;;;;17.58;10.05;;;;;;;;;;5073949;28;20025;-66
2022/10/26 12:03:20;;;;;;;16.70;10.20;;;;;;;;;;5073836;28;20024;-68
2022/10/26 12:05:46;;;;;;;16.00;10.18;;;;;;;;;;5055966;28;20488;-67
2022/10/26 12:08:28;;;;;;;16.50;10.10;;;;;;;;;;5055824;28;20129;-67
2022/10/26 12:11:14;;;;;;;17.83;9.98;;;;;;;;;;5042269;28;20036;-66
2022/10/26 12:14:00;;;;;;;22.60;10.98;;;;;;;;;;5036597;28;20121;-66
2022/10/26 12:16:45;;;;;;;19.45;10.68;;;;;;;;;;5016228;28;20021;-65
2022/10/26 12:19:25;;;;;;;16.25;10.52;;;;;;;;;;5016621;28;20374;-67
2022/10/26 12:21:51;;;;;;;16.25;9.93;;;;;;;;;;5034215;28;20024;-65
2022/10/26 12:24:23;;;;;;;18.67;11.30;;;;;;;;;;5015270;28;20496;-68
2022/10/26 12:26:56;;;;;;;18.30;10.45;;;;;;;;;;5033991;28;20037;-66
2022/10/26 12:29:25;;;;;;;16.05;10.15;;;;;;;;;;5015670;28;20111;-67
2022/10/26 12:31:52;;;;;;;16.95;10.00;;;;;;;;;;5015985;28;20045;-67
2022/10/26 12:34:24;;;;;;;15.65;10.45;;;;;;;;;;4329628;28;10000712;-67
2022/10/26 12:37:11;;;;;;;18.42;9.85;;;;;;;;;;5050191;28;20039;-66
2022/10/26 12:39:39;;;;;;;18.17;9.80;;;;;;;;;;5050560;28;20586;-65
2022/10/26 12:42:05;;;;;;;18.23;10.27;;;;;;;;;;5050446;28;20021;-67
2022/10/26 12:44:36;;;;;;;22.42;10.40;;;;;;;;;;5032429;28;20068;-67
2022/10/26 12:47:02;;;;;;;19.35;11.45;;;;;;;;;;5050123;28;20028;-66
2022/10/26 12:49:47;;;;;;;17.52;10.30;;;;;;;;;;5032129;28;20061;-67
2022/10/26 12:52:20;;;;;;;17.52;11.45;;;;;;;;;;5014726;28;20112;-66
2022/10/26 12:54:55;;;;;;;19.77;10.45;;;;;;;;;;5029762;28;20030;-66
2022/10/26 12:57:26;;;;;;;16.63;10.05;;;;;;;;;;5030120;28;20519;-67
2022/10/26 12:59:57;;;;;;;18.70;10.60;;;;;;;;;;5033739;28;20640;-67
2022/10/26 13:02:36;;;;;;;21.35;11.20;;;;;;;;;;5049792;28;20083;-67
2022/10/26 13:05:02;;;;;;;19.42;11.45;;;;;;;;;;5032637;28;20432;-68
2022/10/26 13:07:33;;;;;;;19.50;11.05;;;;;;;;;;5030099;28;20036;-68
2022/10/26 13:10:12;;;;;;;18.98;12.20;;;;;;;;;;5014292;28;20068;-67
2022/10/26 13:12:49;;;;;;;19.88;11.15;;;;;;;;;;5012781;28;20030;-68
2022/10/26 13:15:18;;;;;;;17.87;10.80;;;;;;;;;;5011787;28;20033;-68
2022/10/26 13:17:52;;;;;;;19.25;10.35;;;;;;;;;;5030183;28;20104;-66
2022/10/26 13:20:18;;;;;;;21.52;11.18;;;;;;;;;;5012888;28;20035;-67
2022/10/26 13:22:46;;;;;;;22.55;10.63;;;;;;;;;;5012567;28;20034;-67
2022/10/26 13:25:22;;;;;;;15.77;10.30;;;;;;;;;;5012626;28;20056;-68
2022/10/26 13:27:57;;;;;;;17.95;10.90;;;;;;;;;;5012674;28;20528;-68
2022/10/26 13:30:32;;;;;;;18.15;10.95;;;;;;;;;;5030630;28;20534;-68
2022/10/26 13:32:59;;;;;;;18.88;10.45;;;;;;;;;;5031281;28;20076;-68
2022/10/26 13:35:26;;;;;;;18.33;10.77;;;;;;;;;;5038024;28;20060;-68
2022/10/26 13:37:54;;;;;;;17.88;10.57;;;;;;;;;;5050466;28;20680;-67
2022/10/26 13:40:22;;;;;;;17.40;10.90;;;;;;;;;;5033092;28;20025;-67
2022/10/26 13:42:50;;;;;;;20.80;10.85;;;;;;;;;;5033490;28;20123;-68
2022/10/26 13:45:18;;;;;;;19.70;10.48;;;;;;;;;;5014661;28;20116;-67
2022/10/26 13:47:48;;;;;;;20.10;10.52;;;;;;;;;;5014704;28;20099;-68
2022/10/26 13:50:16;;;;;;;17.13;10.48;;;;;;;;;;5015281;28;20071;-67
2022/10/26 13:52:44;;;;;;;17.75;10.32;;;;;;;;;;5014501;28;20124;-67
2022/10/26 13:55:18;;;;;;;17.23;10.57;;;;;;;;;;5032117;28;20028;-68
2022/10/26 13:57:47;;;;;;;19.80;11.52;;;;;;;;;;5033199;28;20025;-69
2022/10/26 14:00:18;;;;;;;17.95;11.20;;;;;;;;;;5015539;28;20021;-68
2022/10/26 14:02:44;;;;;;;19.30;10.35;;;;;;;;;;5032959;28;20660;-68
2022/10/26 14:05:13;;;;;;;19.67;10.77;;;;;;;;;;5045259;28;20064;-68
2022/10/26 14:07:39;;;;;;;;;;;;;;;;;;5053014;28;20397;-66
2022/10/26 14:10:05;;;;;;;20.75;11.40;;;;;;;;;;5044707;28;19905;-67
2022/10/26 14:12:31;;;;;;;20.33;11.20;;;;;;;;;;5035102;28;20034;-69
2022/10/26 14:15:17;;;;;;;17.65;11.05;;;;;;;;;;5033707;28;20030;-68
2022/10/26 14:17:48;;;;;;;17.40;10.95;;;;;;;;;;5015287;28;20028;-69
2022/10/26 14:20:17;;;;;;;18.73;10.25;;;;;;;;;;4697607;28;10000335;-68
2022/10/26 14:22:44;;;;;;;16.17;10.40;;;;;;;;;;5050578;28;20025;-66
2022/10/26 14:25:36;;;;;;;17.38;10.40;;;;;;;;;;5050731;28;20029;-68
2022/10/26 14:28:03;;;;;;;19.17;10.73;;;;;;;;;;5051587;28;20040;-68
2022/10/26 14:30:32;;;;;;;18.33;10.18;;;;;;;;;;5053830;28;20036;-68
2022/10/26 14:32:58;;;;;;;18.80;10.52;;;;;;;;;;5021203;28;20044;-68
2022/10/26 14:35:29;;;;;;;18.92;10.70;;;;;;;;;;5043766;28;20278;-67